sensor_id;sensor_type;location;lat;lon;timestamp;P1;durP1;ratioP1;P2;durP2;ratioP2
67191;SDS011;54120;53.504;49.426;2023-09-18T00:00:51;17.60;;;11.07;;
67191;SDS011;54120;53.504;49.426;2023-09-18T00:03:20;14.02;;;10.65;;
67191;SDS011;54120;53.504;49.426;2023-09-18T00:05:50;13.88;;;10.82;;
67191;SDS011;54120;53.504;49.426;2023-09-18T00:08:17;10.70;;;9.60;;
67191;SDS011;54120;53.504;49.426;2023-09-18T00:10:47;12.65;;;11.35;;
67191;SDS011;54120;53.504;49.426;2023-09-18T00:13:15;13.38;;;11.93;;
67191;SDS011;54120;53.504;49.426;2023-09-18T00:15:42;15.70;;;12.43;;
67191;SDS011;54120;53.504;49.426;2023-09-18T00:18:10;13.38;;;11.20;;
67191;SDS011;54120;53.504;49.426;2023-09-18T00:20:36;12.63;;;11.15;;
67191;SDS011;54120;53.504;49.426;2023-09-18T00:23:03;11.90;;;10.68;;
67191;SDS011;54120;53.504;49.426;2023-09-18T00:25:29;14.68;;;11.23;;
67191;SDS011;54120;53.504;49.426;2023-09-18T00:27:56;15.50;;;11.52;;
67191;SDS011;54120;53.504;49.426;2023-09-18T00:30:22;15.13;;;11.50;;
67191;SDS011;54120;53.504;49.426;2023-09-18T00:32:48;14.20;;;11.98;;
67191;SDS011;54120;53.504;49.426;2023-09-18T00:35:15;13.77;;;11.50;;
67191;SDS011;54120;53.504;49.426;2023-09-18T00:37:43;15.57;;;11.57;;
67191;SDS011;54120;53.504;49.426;2023-09-18T00:40:10;12.77;;;11.32;;
67191;SDS011;54120;53.504;49.426;2023-09-18T00:42:37;12.23;;;10.88;;
67191;SDS011;54120;53.504;49.426;2023-09-18T00:45:03;14.80;;;11.50;;
67191;SDS011;54120;53.504;49.426;2023-09-18T00:47:29;16.92;;;10.77;;
67191;SDS011;54120;53.504;49.426;2023-09-18T00:49:55;13.57;;;10.63;;
67191;SDS011;54120;53.504;49.426;2023-09-18T00:52:22;12.93;;;10.55;;
67191;SDS011;54120;53.504;49.426;2023-09-18T00:54:50;14.20;;;10.60;;
67191;SDS011;54120;53.504;49.426;2023-09-18T00:57:17;13.73;;;10.80;;
67191;SDS011;54120;53.504;49.426;2023-09-18T00:59:44;16.50;;;10.50;;
67191;SDS011;54120;53.504;49.426;2023-09-18T01:02:12;14.02;;;10.60;;
67191;SDS011;54120;53.504;49.426;2023-09-18T01:04:40;11.50;;;10.32;;
67191;SDS011;54120;53.504;49.426;2023-09-18T01:07:10;12.52;;;10.02;;
67191;SDS011;54120;53.504;49.426;2023-09-18T01:09:36;12.35;;;10.18;;
67191;SDS011;54120;53.504;49.426;2023-09-18T01:12:08;13.95;;;10.82;;
67191;SDS011;54120;53.504;49.426;2023-09-18T01:14:42;11.60;;;10.35;;
67191;SDS011;54120;53.504;49.426;2023-09-18T01:17:14;11.88;;;10.15;;
67191;SDS011;54120;53.504;49.426;2023-09-18T01:22:13;13.50;;;10.32;;
67191;SDS011;54120;53.504;49.426;2023-09-18T01:24:41;11.63;;;9.75;;
67191;SDS011;54120;53.504;49.426;2023-09-18T01:27:08;12.52;;;10.10;;
67191;SDS011;54120;53.504;49.426;2023-09-18T01:29:36;13.30;;;10.02;;
67191;SDS011;54120;53.504;49.426;2023-09-18T01:32:02;10.90;;;9.77;;
67191;SDS011;54120;53.504;49.426;2023-09-18T01:34:30;12.00;;;9.25;;
67191;SDS011;54120;53.504;49.426;2023-09-18T01:36:58;10.57;;;9.45;;
67191;SDS011;54120;53.504;49.426;2023-09-18T01:39:26;11.50;;;10.30;;
67191;SDS011;54120;53.504;49.426;2023-09-18T01:42:06;11.18;;;9.57;;
67191;SDS011;54120;53.504;49.426;2023-09-18T01:44:35;11.90;;;9.10;;
67191;SDS011;54120;53.504;49.426;2023-09-18T01:47:12;10.70;;;9.60;;
67191;SDS011;54120;53.504;49.426;2023-09-18T01:49:42;12.77;;;9.98;;
67191;SDS011;54120;53.504;49.426;2023-09-18T01:52:08;11.88;;;9.80;;
67191;SDS011;54120;53.504;49.426;2023-09-18T01:54:35;12.13;;;10.02;;
67191;SDS011;54120;53.504;49.426;2023-09-18T01:57:02;14.93;;;10.10;;
67191;SDS011;54120;53.504;49.426;2023-09-18T01:59:29;14.00;;;10.10;;
67191;SDS011;54120;53.504;49.426;2023-09-18T02:01:55;15.18;;;10.02;;
67191;SDS011;54120;53.504;49.426;2023-09-18T02:04:22;19.55;;;9.38;;
67191;SDS011;54120;53.504;49.426;2023-09-18T02:06:49;12.25;;;10.48;;
67191;SDS011;54120;53.504;49.426;2023-09-18T02:09:16;12.73;;;10.32;;
67191;SDS011;54120;53.504;49.426;2023-09-18T02:11:44;17.95;;;10.30;;
67191;SDS011;54120;53.504;49.426;2023-09-18T02:14:12;12.10;;;10.25;;
67191;SDS011;54120;53.504;49.426;2023-09-18T02:16:39;13.95;;;9.73;;
67191;SDS011;54120;53.504;49.426;2023-09-18T02:19:10;18.63;;;9.90;;
67191;SDS011;54120;53.504;49.426;2023-09-18T02:21:38;11.65;;;10.07;;
67191;SDS011;54120;53.504;49.426;2023-09-18T02:24:04;25.25;;;11.73;;
67191;SDS011;54120;53.504;49.426;2023-09-18T02:26:30;17.38;;;11.63;;
67191;SDS011;54120;53.504;49.426;2023-09-18T02:28:58;14.98;;;10.65;;
67191;SDS011;54120;53.504;49.426;2023-09-18T02:31:25;14.85;;;10.85;;
67191;SDS011;54120;53.504;49.426;2023-09-18T02:33:52;17.88;;;11.50;;
67191;SDS011;54120;53.504;49.426;2023-09-18T02:36:19;14.68;;;10.63;;
67191;SDS011;54120;53.504;49.426;2023-09-18T02:38:45;20.42;;;11.18;;
67191;SDS011;54120;53.504;49.426;2023-09-18T02:41:11;18.90;;;12.02;;
67191;SDS011;54120;53.504;49.426;2023-09-18T02:43:38;19.30;;;10.93;;
67191;SDS011;54120;53.504;49.426;2023-09-18T02:46:05;20.38;;;11.50;;
67191;SDS011;54120;53.504;49.426;2023-09-18T02:48:32;14.77;;;9.88;;
67191;SDS011;54120;53.504;49.426;2023-09-18T02:50:59;11.95;;;10.23;;
67191;SDS011;54120;53.504;49.426;2023-09-18T02:53:26;23.90;;;12.23;;
67191;SDS011;54120;53.504;49.426;2023-09-18T02:55:54;19.05;;;10.38;;
67191;SDS011;54120;53.504;49.426;2023-09-18T02:58:21;17.08;;;9.57;;
67191;SDS011;54120;53.504;49.426;2023-09-18T03:00:52;16.95;;;10.63;;
67191;SDS011;54120;53.504;49.426;2023-09-18T03:03:25;25.23;;;10.07;;
67191;SDS011;54120;53.504;49.426;2023-09-18T03:05:52;20.83;;;9.00;;
67191;SDS011;54120;53.504;49.426;2023-09-18T03:08:18;15.77;;;8.98;;
67191;SDS011;54120;53.504;49.426;2023-09-18T03:10:44;11.50;;;8.00;;
67191;SDS011;54120;53.504;49.426;2023-09-18T03:13:12;18.95;;;8.70;;
67191;SDS011;54120;53.504;49.426;2023-09-18T03:15:41;15.63;;;8.13;;
67191;SDS011;54120;53.504;49.426;2023-09-18T03:18:10;17.35;;;8.32;;
67191;SDS011;54120;53.504;49.426;2023-09-18T03:20:36;12.13;;;7.68;;
67191;SDS011;54120;53.504;49.426;2023-09-18T03:23:03;14.32;;;7.35;;
67191;SDS011;54120;53.504;49.426;2023-09-18T03:25:29;14.68;;;7.22;;
67191;SDS011;54120;53.504;49.426;2023-09-18T03:27:56;22.88;;;7.13;;
67191;SDS011;54120;53.504;49.426;2023-09-18T03:30:23;23.45;;;8.45;;
67191;SDS011;54120;53.504;49.426;2023-09-18T03:32:50;19.08;;;7.70;;
67191;SDS011;54120;53.504;49.426;2023-09-18T03:35:17;29.17;;;7.50;;
67191;SDS011;54120;53.504;49.426;2023-09-18T03:37:49;29.90;;;7.63;;
67191;SDS011;54120;53.504;49.426;2023-09-18T03:40:16;20.90;;;9.00;;
67191;SDS011;54120;53.504;49.426;2023-09-18T03:42:44;28.90;;;7.93;;
67191;SDS011;54120;53.504;49.426;2023-09-18T03:45:11;22.33;;;7.95;;
67191;SDS011;54120;53.504;49.426;2023-09-18T03:47:38;24.25;;;8.32;;
67191;SDS011;54120;53.504;49.426;2023-09-18T03:50:05;36.30;;;9.50;;
67191;SDS011;54120;53.504;49.426;2023-09-18T03:52:32;31.33;;;8.13;;
67191;SDS011;54120;53.504;49.426;2023-09-18T03:54:58;24.58;;;8.38;;
67191;SDS011;54120;53.504;49.426;2023-09-18T03:57:25;25.50;;;8.05;;
67191;SDS011;54120;53.504;49.426;2023-09-18T03:59:52;24.98;;;7.63;;
67191;SDS011;54120;53.504;49.426;2023-09-18T04:02:18;16.65;;;8.35;;
67191;SDS011;54120;53.504;49.426;2023-09-18T04:04:44;24.00;;;8.98;;
67191;SDS011;54120;53.504;49.426;2023-09-18T04:07:10;21.17;;;8.68;;
67191;SDS011;54120;53.504;49.426;2023-09-18T04:09:37;22.38;;;9.13;;
67191;SDS011;54120;53.504;49.426;2023-09-18T04:12:04;19.98;;;8.23;;
67191;SDS011;54120;53.504;49.426;2023-09-18T04:14:33;22.42;;;8.00;;
67191;SDS011;54120;53.504;49.426;2023-09-18T04:16:59;17.85;;;7.78;;
67191;SDS011;54120;53.504;49.426;2023-09-18T04:19:28;20.67;;;8.77;;
67191;SDS011;54120;53.504;49.426;2023-09-18T04:21:55;17.75;;;8.38;;
67191;SDS011;54120;53.504;49.426;2023-09-18T04:24:21;19.15;;;7.78;;
67191;SDS011;54120;53.504;49.426;2023-09-18T04:26:48;21.33;;;7.47;;
67191;SDS011;54120;53.504;49.426;2023-09-18T04:29:16;17.77;;;7.18;;
67191;SDS011;54120;53.504;49.426;2023-09-18T04:31:43;19.02;;;7.30;;
67191;SDS011;54120;53.504;49.426;2023-09-18T04:34:10;21.40;;;7.22;;
67191;SDS011;54120;53.504;49.426;2023-09-18T04:36:36;10.50;;;6.53;;
67191;SDS011;54120;53.504;49.426;2023-09-18T04:39:04;14.60;;;6.80;;
67191;SDS011;54120;53.504;49.426;2023-09-18T04:41:31;10.95;;;6.03;;
67191;SDS011;54120;53.504;49.426;2023-09-18T04:43:58;6.50;;;5.57;;
67191;SDS011;54120;53.504;49.426;2023-09-18T04:46:24;7.38;;;5.03;;
67191;SDS011;54120;53.504;49.426;2023-09-18T04:48:51;6.72;;;5.03;;
67191;SDS011;54120;53.504;49.426;2023-09-18T04:51:17;7.97;;;5.38;;
67191;SDS011;54120;53.504;49.426;2023-09-18T04:53:43;11.63;;;6.00;;
67191;SDS011;54120;53.504;49.426;2023-09-18T04:56:09;9.15;;;5.70;;
67191;SDS011;54120;53.504;49.426;2023-09-18T04:58:38;13.40;;;6.63;;
67191;SDS011;54120;53.504;49.426;2023-09-18T05:01:04;9.40;;;7.32;;
67191;SDS011;54120;53.504;49.426;2023-09-18T05:03:34;11.50;;;6.97;;
67191;SDS011;54120;53.504;49.426;2023-09-18T05:06:02;10.55;;;8.18;;
67191;SDS011;54120;53.504;49.426;2023-09-18T05:08:29;17.35;;;7.70;;
67191;SDS011;54120;53.504;49.426;2023-09-18T05:10:57;14.43;;;8.38;;
67191;SDS011;54120;53.504;49.426;2023-09-18T05:13:23;11.63;;;7.45;;
67191;SDS011;54120;53.504;49.426;2023-09-18T05:15:49;19.50;;;10.40;;
67191;SDS011;54120;53.504;49.426;2023-09-18T05:18:15;17.60;;;8.98;;
67191;SDS011;54120;53.504;49.426;2023-09-18T05:20:41;16.55;;;10.00;;
67191;SDS011;54120;53.504;49.426;2023-09-18T05:23:07;16.20;;;10.10;;
67191;SDS011;54120;53.504;49.426;2023-09-18T05:25:34;21.27;;;10.70;;
67191;SDS011;54120;53.504;49.426;2023-09-18T05:28:03;18.45;;;9.98;;
67191;SDS011;54120;53.504;49.426;2023-09-18T05:30:32;17.58;;;11.60;;
67191;SDS011;54120;53.504;49.426;2023-09-18T05:33:00;19.58;;;11.02;;
67191;SDS011;54120;53.504;49.426;2023-09-18T05:35:31;19.75;;;11.20;;
67191;SDS011;54120;53.504;49.426;2023-09-18T05:37:58;21.02;;;10.80;;
67191;SDS011;54120;53.504;49.426;2023-09-18T05:40:26;15.60;;;11.18;;
67191;SDS011;54120;53.504;49.426;2023-09-18T05:42:53;17.88;;;11.25;;
67191;SDS011;54120;53.504;49.426;2023-09-18T05:45:19;21.73;;;12.98;;
67191;SDS011;54120;53.504;49.426;2023-09-18T05:47:45;21.85;;;12.80;;
67191;SDS011;54120;53.504;49.426;2023-09-18T05:50:13;29.02;;;14.00;;
67191;SDS011;54120;53.504;49.426;2023-09-18T05:52:43;22.27;;;12.70;;
67191;SDS011;54120;53.504;49.426;2023-09-18T05:55:10;23.42;;;13.98;;
67191;SDS011;54120;53.504;49.426;2023-09-18T05:57:36;25.10;;;13.43;;
67191;SDS011;54120;53.504;49.426;2023-09-18T06:00:03;24.08;;;13.20;;
67191;SDS011;54120;53.504;49.426;2023-09-18T06:02:30;26.65;;;13.23;;
67191;SDS011;54120;53.504;49.426;2023-09-18T06:04:59;21.92;;;13.13;;
67191;SDS011;54120;53.504;49.426;2023-09-18T06:07:26;22.13;;;13.45;;
67191;SDS011;54120;53.504;49.426;2023-09-18T06:09:53;20.13;;;13.13;;
67191;SDS011;54120;53.504;49.426;2023-09-18T06:12:19;14.85;;;9.45;;
67191;SDS011;54120;53.504;49.426;2023-09-18T06:14:46;10.10;;;7.38;;
67191;SDS011;54120;53.504;49.426;2023-09-18T06:17:13;15.95;;;7.50;;
67191;SDS011;54120;53.504;49.426;2023-09-18T06:19:40;11.93;;;7.95;;
67191;SDS011;54120;53.504;49.426;2023-09-18T06:22:07;12.82;;;8.52;;
67191;SDS011;54120;53.504;49.426;2023-09-18T06:24:34;11.43;;;8.35;;
67191;SDS011;54120;53.504;49.426;2023-09-18T06:27:00;10.93;;;7.63;;
67191;SDS011;54120;53.504;49.426;2023-09-18T06:29:26;8.88;;;7.53;;
67191;SDS011;54120;53.504;49.426;2023-09-18T06:31:52;12.63;;;7.55;;
67191;SDS011;54120;53.504;49.426;2023-09-18T06:34:18;9.32;;;7.07;;
67191;SDS011;54120;53.504;49.426;2023-09-18T06:36:44;8.13;;;6.50;;
67191;SDS011;54120;53.504;49.426;2023-09-18T06:39:11;6.38;;;5.78;;
67191;SDS011;54120;53.504;49.426;2023-09-18T06:41:37;7.63;;;5.65;;
67191;SDS011;54120;53.504;49.426;2023-09-18T06:44:03;7.03;;;4.60;;
67191;SDS011;54120;53.504;49.426;2023-09-18T06:46:30;9.43;;;4.80;;
67191;SDS011;54120;53.504;49.426;2023-09-18T06:48:56;5.60;;;4.40;;
67191;SDS011;54120;53.504;49.426;2023-09-18T06:51:23;12.88;;;4.32;;
67191;SDS011;54120;53.504;49.426;2023-09-18T06:53:49;6.03;;;4.10;;
67191;SDS011;54120;53.504;49.426;2023-09-18T06:56:16;4.95;;;3.97;;
67191;SDS011;54120;53.504;49.426;2023-09-18T06:58:42;5.05;;;3.90;;
67191;SDS011;54120;53.504;49.426;2023-09-18T07:01:08;7.38;;;4.35;;
67191;SDS011;54120;53.504;49.426;2023-09-18T07:03:35;7.78;;;5.75;;
67191;SDS011;54120;53.504;49.426;2023-09-18T07:06:02;9.23;;;6.60;;
67191;SDS011;54120;53.504;49.426;2023-09-18T07:08:30;8.45;;;6.53;;
67191;SDS011;54120;53.504;49.426;2023-09-18T07:10:58;8.02;;;6.45;;
67191;SDS011;54120;53.504;49.426;2023-09-18T07:13:25;13.25;;;7.00;;
67191;SDS011;54120;53.504;49.426;2023-09-18T07:15:51;11.80;;;7.05;;
67191;SDS011;54120;53.504;49.426;2023-09-18T07:18:18;15.68;;;7.28;;
67191;SDS011;54120;53.504;49.426;2023-09-18T07:20:44;6.32;;;4.90;;
67191;SDS011;54120;53.504;49.426;2023-09-18T07:23:10;13.90;;;11.25;;
67191;SDS011;54120;53.504;49.426;2023-09-18T07:25:37;13.50;;;7.97;;
67191;SDS011;54120;53.504;49.426;2023-09-18T07:28:07;12.45;;;8.10;;
67191;SDS011;54120;53.504;49.426;2023-09-18T07:30:34;9.77;;;8.45;;
67191;SDS011;54120;53.504;49.426;2023-09-18T07:33:03;8.55;;;7.07;;
67191;SDS011;54120;53.504;49.426;2023-09-18T07:35:29;11.93;;;6.90;;
67191;SDS011;54120;53.504;49.426;2023-09-18T07:37:56;14.35;;;7.10;;
67191;SDS011;54120;53.504;49.426;2023-09-18T07:40:23;9.68;;;7.43;;
67191;SDS011;54120;53.504;49.426;2023-09-18T07:42:49;8.80;;;7.50;;
67191;SDS011;54120;53.504;49.426;2023-09-18T07:45:15;10.20;;;7.78;;
67191;SDS011;54120;53.504;49.426;2023-09-18T07:47:43;10.65;;;7.60;;
67191;SDS011;54120;53.504;49.426;2023-09-18T07:50:09;41.92;;;12.45;;
67191;SDS011;54120;53.504;49.426;2023-09-18T07:52:35;8.10;;;7.40;;
67191;SDS011;54120;53.504;49.426;2023-09-18T07:55:02;15.88;;;7.35;;
67191;SDS011;54120;53.504;49.426;2023-09-18T07:57:28;12.35;;;7.20;;
67191;SDS011;54120;53.504;49.426;2023-09-18T07:59:56;7.10;;;6.18;;
67191;SDS011;54120;53.504;49.426;2023-09-18T08:02:22;7.97;;;6.50;;
67191;SDS011;54120;53.504;49.426;2023-09-18T08:04:49;7.18;;;5.90;;
67191;SDS011;54120;53.504;49.426;2023-09-18T08:07:15;5.95;;;5.20;;
67191;SDS011;54120;53.504;49.426;2023-09-18T08:09:42;9.32;;;5.20;;
67191;SDS011;54120;53.504;49.426;2023-09-18T08:12:08;8.40;;;5.07;;
67191;SDS011;54120;53.504;49.426;2023-09-18T08:14:35;7.55;;;4.93;;
67191;SDS011;54120;53.504;49.426;2023-09-18T08:17:02;5.75;;;4.70;;
67191;SDS011;54120;53.504;49.426;2023-09-18T08:19:30;9.93;;;4.90;;
67191;SDS011;54120;53.504;49.426;2023-09-18T08:21:58;7.55;;;4.43;;
67191;SDS011;54120;53.504;49.426;2023-09-18T08:24:29;4.85;;;4.30;;
67191;SDS011;54120;53.504;49.426;2023-09-18T08:26:55;7.45;;;4.90;;
67191;SDS011;54120;53.504;49.426;2023-09-18T08:29:22;8.30;;;4.63;;
67191;SDS011;54120;53.504;49.426;2023-09-18T08:31:48;9.05;;;5.20;;
67191;SDS011;54120;53.504;49.426;2023-09-18T08:34:16;4.68;;;4.28;;
67191;SDS011;54120;53.504;49.426;2023-09-18T08:36:43;6.95;;;4.72;;
67191;SDS011;54120;53.504;49.426;2023-09-18T08:39:09;5.75;;;4.63;;
67191;SDS011;54120;53.504;49.426;2023-09-18T08:41:42;8.32;;;4.45;;
67191;SDS011;54120;53.504;49.426;2023-09-18T08:44:09;4.80;;;4.30;;
67191;SDS011;54120;53.504;49.426;2023-09-18T08:46:36;11.32;;;4.60;;
67191;SDS011;54120;53.504;49.426;2023-09-18T08:49:02;6.50;;;4.13;;
67191;SDS011;54120;53.504;49.426;2023-09-18T08:51:30;5.45;;;4.90;;
67191;SDS011;54120;53.504;49.426;2023-09-18T08:53:58;6.22;;;4.47;;
67191;SDS011;54120;53.504;49.426;2023-09-18T08:56:24;5.07;;;4.57;;
67191;SDS011;54120;53.504;49.426;2023-09-18T08:58:53;5.63;;;4.65;;
67191;SDS011;54120;53.504;49.426;2023-09-18T09:01:20;5.88;;;4.32;;
67191;SDS011;54120;53.504;49.426;2023-09-18T09:03:46;4.88;;;4.32;;
67191;SDS011;54120;53.504;49.426;2023-09-18T09:06:13;5.25;;;4.75;;
67191;SDS011;54120;53.504;49.426;2023-09-18T09:08:39;5.30;;;4.40;;
67191;SDS011;54120;53.504;49.426;2023-09-18T09:11:05;6.15;;;4.82;;
67191;SDS011;54120;53.504;49.426;2023-09-18T09:13:32;4.68;;;4.28;;
67191;SDS011;54120;53.504;49.426;2023-09-18T09:15:58;5.80;;;4.60;;
67191;SDS011;54120;53.504;49.426;2023-09-18T09:18:27;8.90;;;4.47;;
67191;SDS011;54120;53.504;49.426;2023-09-18T09:20:55;6.47;;;4.60;;
67191;SDS011;54120;53.504;49.426;2023-09-18T09:23:27;8.00;;;4.45;;
67191;SDS011;54120;53.504;49.426;2023-09-18T09:26:22;4.50;;;4.10;;
67191;SDS011;54120;53.504;49.426;2023-09-18T09:28:49;4.93;;;4.43;;
67191;SDS011;54120;53.504;49.426;2023-09-18T09:31:28;4.53;;;4.13;;
67191;SDS011;54120;53.504;49.426;2023-09-18T09:33:56;5.13;;;4.13;;
67191;SDS011;54120;53.504;49.426;2023-09-18T09:36:23;10.30;;;5.60;;
67191;SDS011;54120;53.504;49.426;2023-09-18T09:38:57;5.55;;;4.68;;
67191;SDS011;54120;53.504;49.426;2023-09-18T09:41:24;6.57;;;5.30;;
67191;SDS011;54120;53.504;49.426;2023-09-18T09:43:53;8.27;;;4.80;;
67191;SDS011;54120;53.504;49.426;2023-09-18T09:46:23;8.60;;;5.35;;
67191;SDS011;54120;53.504;49.426;2023-09-18T09:48:58;5.60;;;4.65;;
67191;SDS011;54120;53.504;49.426;2023-09-18T09:51:29;6.10;;;4.60;;
67191;SDS011;54120;53.504;49.426;2023-09-18T09:53:56;5.60;;;4.35;;
67191;SDS011;54120;53.504;49.426;2023-09-18T09:59:13;6.53;;;4.68;;
67191;SDS011;54120;53.504;49.426;2023-09-18T10:01:40;8.18;;;4.75;;
67191;SDS011;54120;53.504;49.426;2023-09-18T10:04:09;5.72;;;4.57;;
67191;SDS011;54120;53.504;49.426;2023-09-18T10:06:38;7.13;;;4.63;;
67191;SDS011;54120;53.504;49.426;2023-09-18T10:09:08;4.70;;;4.30;;
67191;SDS011;54120;53.504;49.426;2023-09-18T10:11:40;5.55;;;4.40;;
67191;SDS011;54120;53.504;49.426;2023-09-18T10:14:17;5.10;;;4.68;;
67191;SDS011;54120;53.504;49.426;2023-09-18T10:16:50;4.30;;;4.00;;
67191;SDS011;54120;53.504;49.426;2023-09-18T10:19:28;6.63;;;4.63;;
67191;SDS011;54120;53.504;49.426;2023-09-18T10:22:08;5.10;;;4.60;;
67191;SDS011;54120;53.504;49.426;2023-09-18T10:24:42;5.28;;;4.70;;
67191;SDS011;54120;53.504;49.426;2023-09-18T10:27:13;5.13;;;4.60;;
67191;SDS011;54120;53.504;49.426;2023-09-18T10:29:40;6.60;;;4.47;;
67191;SDS011;54120;53.504;49.426;2023-09-18T10:32:07;4.20;;;3.90;;
67191;SDS011;54120;53.504;49.426;2023-09-18T10:34:35;6.63;;;4.85;;
67191;SDS011;54120;53.504;49.426;2023-09-18T10:37:02;5.75;;;4.68;;
67191;SDS011;54120;53.504;49.426;2023-09-18T10:39:34;8.85;;;4.57;;
67191;SDS011;54120;53.504;49.426;2023-09-18T10:42:02;5.82;;;4.15;;
67191;SDS011;54120;53.504;49.426;2023-09-18T10:44:31;5.07;;;4.32;;
67191;SDS011;54120;53.504;49.426;2023-09-18T10:47:00;6.25;;;4.15;;
67191;SDS011;54120;53.504;49.426;2023-09-18T10:49:28;6.10;;;4.20;;
67191;SDS011;54120;53.504;49.426;2023-09-18T10:51:55;9.02;;;4.20;;
67191;SDS011;54120;53.504;49.426;2023-09-18T10:54:25;7.68;;;3.97;;
67191;SDS011;54120;53.504;49.426;2023-09-18T10:56:53;5.30;;;4.05;;
67191;SDS011;54120;53.504;49.426;2023-09-18T10:59:22;8.00;;;4.70;;
67191;SDS011;54120;53.504;49.426;2023-09-18T11:01:48;6.28;;;4.05;;
67191;SDS011;54120;53.504;49.426;2023-09-18T11:04:19;11.32;;;4.85;;
67191;SDS011;54120;53.504;49.426;2023-09-18T11:09:24;5.35;;;4.18;;
67191;SDS011;54120;53.504;49.426;2023-09-18T11:17:28;4.35;;;3.95;;
67191;SDS011;54120;53.504;49.426;2023-09-18T11:20:04;4.03;;;3.65;;
67191;SDS011;54120;53.504;49.426;2023-09-18T11:22:35;6.30;;;3.88;;
67191;SDS011;54120;53.504;49.426;2023-09-18T11:27:56;4.30;;;3.85;;
67191;SDS011;54120;53.504;49.426;2023-09-18T11:30:23;8.65;;;4.20;;
67191;SDS011;54120;53.504;49.426;2023-09-18T11:32:50;6.40;;;3.90;;
67191;SDS011;54120;53.504;49.426;2023-09-18T11:35:18;7.53;;;3.92;;
67191;SDS011;54120;53.504;49.426;2023-09-18T11:38:02;5.95;;;4.03;;
67191;SDS011;54120;53.504;49.426;2023-09-18T11:40:33;8.15;;;4.50;;
67191;SDS011;54120;53.504;49.426;2023-09-18T11:43:18;5.95;;;4.30;;
67191;SDS011;54120;53.504;49.426;2023-09-18T11:45:44;5.30;;;3.92;;
67191;SDS011;54120;53.504;49.426;2023-09-18T11:48:15;5.07;;;4.57;;
67191;SDS011;54120;53.504;49.426;2023-09-18T11:50:43;5.85;;;4.28;;
67191;SDS011;54120;53.504;49.426;2023-09-18T11:53:11;7.97;;;4.65;;
67191;SDS011;54120;53.504;49.426;2023-09-18T11:55:39;10.02;;;4.85;;
67191;SDS011;54120;53.504;49.426;2023-09-18T11:58:05;7.95;;;4.63;;
67191;SDS011;54120;53.504;49.426;2023-09-18T12:00:37;5.85;;;4.20;;
67191;SDS011;54120;53.504;49.426;2023-09-18T12:03:17;10.15;;;4.43;;
67191;SDS011;54120;53.504;49.426;2023-09-18T12:05:58;6.20;;;4.32;;
67191;SDS011;54120;53.504;49.426;2023-09-18T12:08:26;5.07;;;4.20;;
67191;SDS011;54120;53.504;49.426;2023-09-18T12:10:58;4.75;;;4.30;;
67191;SDS011;54120;53.504;49.426;2023-09-18T12:13:24;4.78;;;4.20;;
67191;SDS011;54120;53.504;49.426;2023-09-18T12:16:02;8.90;;;4.35;;
67191;SDS011;54120;53.504;49.426;2023-09-18T12:18:32;6.20;;;4.47;;
67191;SDS011;54120;53.504;49.426;2023-09-18T12:21:05;7.70;;;5.05;;
67191;SDS011;54120;53.504;49.426;2023-09-18T12:23:38;4.45;;;4.05;;
67191;SDS011;54120;53.504;49.426;2023-09-18T12:26:05;6.50;;;4.68;;
67191;SDS011;54120;53.504;49.426;2023-09-18T12:28:35;4.75;;;4.00;;
67191;SDS011;54120;53.504;49.426;2023-09-18T12:31:02;5.28;;;4.30;;
67191;SDS011;54120;53.504;49.426;2023-09-18T12:33:35;4.60;;;4.13;;
67191;SDS011;54120;53.504;49.426;2023-09-18T12:36:02;8.90;;;4.38;;
67191;SDS011;54120;53.504;49.426;2023-09-18T12:38:30;4.53;;;4.13;;
67191;SDS011;54120;53.504;49.426;2023-09-18T12:40:57;4.65;;;4.28;;
67191;SDS011;54120;53.504;49.426;2023-09-18T12:43:33;5.28;;;3.97;;
67191;SDS011;54120;53.504;49.426;2023-09-18T12:46:07;5.68;;;4.22;;
67191;SDS011;54120;53.504;49.426;2023-09-18T12:48:37;4.53;;;4.05;;
67191;SDS011;54120;53.504;49.426;2023-09-18T12:51:12;4.38;;;4.07;;
67191;SDS011;54120;53.504;49.426;2023-09-18T12:53:39;4.90;;;4.22;;
67191;SDS011;54120;53.504;49.426;2023-09-18T12:56:10;6.25;;;4.60;;
67191;SDS011;54120;53.504;49.426;2023-09-18T12:58:40;5.38;;;4.13;;
67191;SDS011;54120;53.504;49.426;2023-09-18T13:01:07;4.60;;;4.20;;
67191;SDS011;54120;53.504;49.426;2023-09-18T13:03:34;4.88;;;4.43;;
67191;SDS011;54120;53.504;49.426;2023-09-18T13:06:11;5.60;;;4.20;;
67191;SDS011;54120;53.504;49.426;2023-09-18T13:08:43;7.45;;;4.47;;
67191;SDS011;54120;53.504;49.426;2023-09-18T13:11:09;4.15;;;3.72;;
67191;SDS011;54120;53.504;49.426;2023-09-18T13:13:41;8.05;;;4.30;;
67191;SDS011;54120;53.504;49.426;2023-09-18T13:16:09;7.95;;;4.38;;
67191;SDS011;54120;53.504;49.426;2023-09-18T13:18:35;4.75;;;4.28;;
67191;SDS011;54120;53.504;49.426;2023-09-18T13:21:09;4.88;;;4.38;;
67191;SDS011;54120;53.504;49.426;2023-09-18T13:23:39;14.10;;;9.85;;
67191;SDS011;54120;53.504;49.426;2023-09-18T13:26:06;22.05;;;15.73;;
67191;SDS011;54120;53.504;49.426;2023-09-18T13:28:36;5.40;;;4.90;;
67191;SDS011;54120;53.504;49.426;2023-09-18T13:31:05;8.68;;;4.88;;
67191;SDS011;54120;53.504;49.426;2023-09-18T13:33:32;6.53;;;4.43;;
67191;SDS011;54120;53.504;49.426;2023-09-18T13:35:59;7.57;;;4.68;;
67191;SDS011;54120;53.504;49.426;2023-09-18T13:38:25;8.82;;;5.20;;
67191;SDS011;54120;53.504;49.426;2023-09-18T13:40:54;7.25;;;4.90;;
67191;SDS011;54120;53.504;49.426;2023-09-18T13:43:20;6.28;;;4.90;;
67191;SDS011;54120;53.504;49.426;2023-09-18T13:45:49;8.23;;;5.10;;
67191;SDS011;54120;53.504;49.426;2023-09-18T13:48:19;21.10;;;17.60;;
67191;SDS011;54120;53.504;49.426;2023-09-18T13:50:46;8.23;;;6.10;;
67191;SDS011;54120;53.504;49.426;2023-09-18T13:53:13;7.20;;;5.10;;
67191;SDS011;54120;53.504;49.426;2023-09-18T13:55:39;10.35;;;4.85;;
67191;SDS011;54120;53.504;49.426;2023-09-18T13:58:06;5.22;;;4.55;;
67191;SDS011;54120;53.504;49.426;2023-09-18T14:00:32;8.43;;;4.88;;
67191;SDS011;54120;53.504;49.426;2023-09-18T14:02:58;6.53;;;4.63;;
67191;SDS011;54120;53.504;49.426;2023-09-18T14:05:25;7.43;;;5.10;;
67191;SDS011;54120;53.504;49.426;2023-09-18T14:07:52;15.38;;;5.55;;
67191;SDS011;54120;53.504;49.426;2023-09-18T14:10:25;8.73;;;5.22;;
67191;SDS011;54120;53.504;49.426;2023-09-18T14:12:51;10.50;;;5.45;;
67191;SDS011;54120;53.504;49.426;2023-09-18T14:15:17;13.80;;;6.35;;
67191;SDS011;54120;53.504;49.426;2023-09-18T14:17:44;13.18;;;5.57;;
67191;SDS011;54120;53.504;49.426;2023-09-18T14:20:10;23.77;;;6.30;;
67191;SDS011;54120;53.504;49.426;2023-09-18T14:22:36;8.57;;;6.15;;
67191;SDS011;54120;53.504;49.426;2023-09-18T14:25:02;11.30;;;5.32;;
67191;SDS011;54120;53.504;49.426;2023-09-18T14:27:32;12.90;;;5.93;;
67191;SDS011;54120;53.504;49.426;2023-09-18T14:29:58;12.82;;;6.55;;
67191;SDS011;54120;53.504;49.426;2023-09-18T14:32:24;35.72;;;25.45;;
67191;SDS011;54120;53.504;49.426;2023-09-18T14:34:51;11.05;;;6.55;;
67191;SDS011;54120;53.504;49.426;2023-09-18T14:37:17;10.80;;;5.72;;
67191;SDS011;54120;53.504;49.426;2023-09-18T14:39:43;9.25;;;6.13;;
67191;SDS011;54120;53.504;49.426;2023-09-18T14:42:09;13.32;;;5.47;;
67191;SDS011;54120;53.504;49.426;2023-09-18T14:44:38;21.02;;;7.18;;